createdAt,value
2018-06-08T00:00:57.037Z,8.63
2018-06-08T00:03:25.363Z,8.93
2018-06-08T00:05:54.105Z,9.20
2018-06-08T00:08:25.305Z,9.43
2018-06-08T00:10:53.518Z,8.93
2018-06-08T00:13:24.722Z,9.90
2018-06-08T00:15:55.148Z,10.60
2018-06-08T00:18:26.135Z,9.30
2018-06-08T00:20:54.477Z,10.90
2018-06-08T00:23:30.523Z,10.80
2018-06-08T00:26:01.070Z,10.20
2018-06-08T00:28:32.451Z,9.47
2018-06-08T00:31:03.069Z,11.60
2018-06-08T00:33:43.116Z,10.53
2018-06-08T00:36:11.373Z,10.77
2018-06-08T00:38:43.856Z,10.87
2018-06-08T00:41:12.131Z,11.43
2018-06-08T00:43:46.772Z,10.30
2018-06-08T00:46:15.022Z,11.47
2018-06-08T00:48:45.979Z,9.70
2018-06-08T00:51:14.269Z,10.37
2018-06-08T00:53:42.625Z,10.23
2018-06-08T00:56:24.724Z,10.60
2018-06-08T00:58:57.078Z,9.93
2018-06-08T01:01:37.170Z,10.37
2018-06-08T01:04:05.447Z,10.63
2018-06-08T01:06:36.680Z,9.87
2018-06-08T01:09:07.746Z,10.40
2018-06-08T01:11:36.186Z,9.97
2018-06-08T01:14:04.857Z,10.23
2018-06-08T01:16:35.130Z,10.50
2018-06-08T01:19:03.353Z,10.10
2018-06-08T01:21:35.618Z,10.63
2018-06-08T01:24:06.891Z,9.77
2018-06-08T01:26:38.253Z,10.40
2018-06-08T01:29:17.883Z,10.00
2018-06-08T01:31:51.488Z,10.40
2018-06-08T01:34:26.791Z,10.93
2018-06-08T01:36:57.835Z,10.57
2018-06-08T01:39:26.211Z,10.50
2018-06-08T01:41:54.519Z,10.07
2018-06-08T01:44:27.131Z,10.40
2018-06-08T01:46:55.358Z,11.03
2018-06-08T01:49:28.482Z,10.40
2018-06-08T01:52:01.751Z,11.60
2018-06-08T01:54:33.100Z,12.00
2018-06-08T01:57:01.383Z,10.60
2018-06-08T01:59:32.644Z,12.13
2018-06-08T02:02:07.706Z,11.20
2018-06-08T02:04:38.108Z,10.93
2018-06-08T02:07:06.329Z,10.83
2018-06-08T02:09:34.521Z,11.93
2018-06-08T02:12:05.693Z,11.23
2018-06-08T02:14:36.121Z,11.10
2018-06-08T02:17:06.529Z,11.57
2018-06-08T02:19:34.982Z,10.87
2018-06-08T02:22:03.257Z,10.93
2018-06-08T02:24:31.445Z,10.40
2018-06-08T02:27:02.730Z,10.90
2018-06-08T02:29:33.210Z,10.70
2018-06-08T02:32:13.107Z,10.97
2018-06-08T02:34:41.348Z,11.80
2018-06-08T02:37:12.521Z,11.90
2018-06-08T02:39:52.568Z,12.37
2018-06-08T02:42:20.804Z,12.03
2018-06-08T02:44:55.772Z,11.20
2018-06-08T02:47:26.062Z,10.97
2018-06-08T02:49:54.328Z,11.40
2018-06-08T02:52:26.750Z,12.20
2018-06-08T02:54:57.757Z,11.37
2018-06-08T02:57:27.914Z,11.43
2018-06-08T02:59:56.162Z,10.93
2018-06-08T03:02:27.228Z,12.03
2018-06-08T03:05:03.529Z,11.50
2018-06-08T03:07:31.760Z,11.53
2018-06-08T03:10:00.014Z,11.43
2018-06-08T03:12:34.538Z,11.83
2018-06-08T03:15:07.153Z,10.87
2018-06-08T03:17:35.413Z,10.37
2018-06-08T03:20:10.009Z,11.63
2018-06-08T03:22:38.325Z,12.37
2018-06-08T03:25:06.679Z,11.60
2018-06-08T03:27:37.709Z,13.30
2018-06-08T03:30:05.944Z,13.53
2018-06-08T03:32:39.323Z,12.83
2018-06-08T03:35:14.196Z,12.27
2018-06-08T03:37:42.494Z,12.50
2018-06-08T03:40:10.759Z,12.83
2018-06-08T03:42:45.456Z,12.83
2018-06-08T03:45:13.663Z,11.97
2018-06-08T03:47:53.473Z,12.30
2018-06-08T03:50:21.696Z,10.70
2018-06-08T03:52:53.165Z,11.40
2018-06-08T03:55:25.495Z,12.17
2018-06-08T03:58:00.977Z,11.17
2018-06-08T04:00:35.249Z,11.60
2018-06-08T04:03:10.951Z,12.27
2018-06-08T04:05:43.323Z,11.57
2018-06-08T04:08:17.572Z,11.90
2018-06-08T04:10:59.042Z,11.63
2018-06-08T04:13:30.135Z,10.80
2018-06-08T04:16:10.327Z,11.57
2018-06-08T04:18:38.562Z,12.07
2018-06-08T04:21:11.143Z,12.27
2018-06-08T04:23:39.455Z,12.63
2018-06-08T04:26:19.284Z,11.90
2018-06-08T04:28:50.485Z,12.07
2018-06-08T04:31:18.769Z,12.40
2018-06-08T04:33:52.311Z,12.10
2018-06-08T04:36:23.329Z,13.23
2018-06-08T04:38:54.880Z,12.70
2018-06-08T04:41:26.335Z,12.70
2018-06-08T04:43:59.741Z,13.57
2018-06-08T04:46:32.547Z,12.53
2018-06-08T04:49:14.592Z,12.57
2018-06-08T04:51:48.321Z,12.87
2018-06-08T04:54:25.015Z,12.00
2018-06-08T04:56:53.288Z,11.97
2018-06-08T04:59:25.971Z,12.37
2018-06-08T05:01:54.217Z,12.80
2018-06-08T05:04:22.821Z,13.13
2018-06-08T05:06:55.352Z,12.07
2018-06-08T05:09:23.644Z,12.20
2018-06-08T05:11:59.444Z,12.57
2018-06-08T05:14:27.673Z,12.13
2018-06-08T05:17:00.604Z,12.63
2018-06-08T05:19:30.966Z,12.30
2018-06-08T05:21:59.229Z,11.90
2018-06-08T05:24:27.471Z,12.10
2018-06-08T05:27:02.079Z,12.00
2018-06-08T05:29:33.371Z,12.00
2018-06-08T05:32:07.942Z,10.73
2018-06-08T05:34:42.582Z,11.80
2018-06-08T05:37:10.824Z,11.60
2018-06-08T05:39:41.882Z,12.67
2018-06-08T05:42:10.594Z,12.90
2018-06-08T05:44:52.523Z,11.13
2018-06-08T05:47:20.970Z,10.63
2018-06-08T05:49:49.205Z,11.43
2018-06-08T05:52:22.335Z,11.10
2018-06-08T05:54:53.521Z,10.37
2018-06-08T05:57:22.053Z,10.77
2018-06-08T05:59:50.514Z,10.87
2018-06-08T06:02:18.876Z,11.20
2018-06-08T06:04:47.072Z,11.60
2018-06-08T06:07:21.549Z,12.17
2018-06-08T06:09:52.465Z,11.47
2018-06-08T06:12:20.698Z,11.60
2018-06-08T06:14:48.970Z,11.30
2018-06-08T06:17:20.212Z,11.63
2018-06-08T06:20:03.796Z,12.37
2018-06-08T06:22:44.843Z,12.33
2018-06-08T06:25:25.706Z,12.30
2018-06-08T06:27:58.227Z,12.43
2018-06-08T06:30:26.430Z,11.77
2018-06-08T06:32:57.957Z,12.47
2018-06-08T06:35:40.794Z,12.03
2018-06-08T06:38:09.008Z,11.90
2018-06-08T06:40:40.052Z,13.23
2018-06-08T06:43:11.245Z,14.10
2018-06-08T06:45:39.834Z,13.70
2018-06-08T06:48:08.225Z,14.13
2018-06-08T06:50:36.418Z,14.40
2018-06-08T06:53:07.684Z,15.80
2018-06-08T06:55:43.292Z,16.27
2018-06-08T06:58:17.766Z,16.80
2018-06-08T07:00:48.662Z,16.67
2018-06-08T07:03:17.000Z,15.97
2018-06-08T07:05:45.237Z,13.90
2018-06-08T07:08:23.454Z,14.73
2018-06-08T07:11:01.821Z,14.80
2018-06-08T07:13:37.405Z,14.37
2018-06-08T07:16:11.943Z,14.30
2018-06-08T07:18:46.491Z,13.53
2018-06-08T07:21:14.764Z,13.50
2018-06-08T07:23:49.511Z,14.33
2018-06-08T07:26:17.913Z,13.70
2018-06-08T07:28:46.077Z,13.50
2018-06-08T07:31:20.814Z,12.80
2018-06-08T07:33:49.081Z,13.40
2018-06-08T07:36:19.457Z,12.07
2018-06-08T07:38:52.779Z,12.00
2018-06-08T07:41:24.210Z,11.37
2018-06-08T07:44:02.462Z,11.80
2018-06-08T07:46:32.762Z,10.90
2018-06-08T07:49:00.958Z,11.73
2018-06-08T07:51:35.590Z,11.57
2018-06-08T07:54:03.871Z,12.37
2018-06-08T07:56:36.931Z,11.00
2018-06-08T07:59:08.132Z,13.00
2018-06-08T08:01:36.475Z,10.83
2018-06-08T08:04:04.730Z,10.80
2018-06-08T08:06:39.127Z,11.20
2018-06-08T08:09:11.698Z,10.47
2018-06-08T08:11:42.237Z,11.33
2018-06-08T08:14:24.889Z,11.30
2018-06-08T08:16:53.297Z,11.30
2018-06-08T08:19:21.570Z,12.37
2018-06-08T08:22:01.495Z,11.20
2018-06-08T08:24:32.144Z,10.87
2018-06-08T08:27:03.605Z,11.13
2018-06-08T08:29:35.018Z,12.50
2018-06-08T08:32:08.591Z,11.07
2018-06-08T08:34:46.788Z,10.47
2018-06-08T08:37:17.465Z,10.40
2018-06-08T08:39:52.036Z,9.67
2018-06-08T08:42:27.555Z,9.30
2018-06-08T08:45:02.054Z,9.40
2018-06-08T08:47:39.487Z,9.63
2018-06-08T08:50:11.929Z,8.33
2018-06-08T08:52:48.554Z,8.30
2018-06-08T08:55:16.842Z,8.70
2018-06-08T08:57:52.110Z,8.03
2018-06-08T09:00:25.431Z,8.47
2018-06-08T09:02:58.760Z,8.27
2018-06-08T09:05:38.350Z,8.10
2018-06-08T09:08:20.547Z,8.47
2018-06-08T09:10:49.063Z,8.23
2018-06-08T09:13:20.239Z,8.10
2018-06-08T09:15:48.462Z,7.93
2018-06-08T09:18:16.728Z,8.03
2018-06-08T09:20:53.188Z,8.63
2018-06-08T09:23:30.887Z,7.97
2018-06-08T09:25:59.191Z,7.87
2018-06-08T09:28:34.686Z,7.83
2018-06-08T09:31:05.849Z,8.13
2018-06-08T09:33:38.248Z,7.90
2018-06-08T09:36:11.704Z,8.50
2018-06-08T09:38:45.007Z,7.30
2018-06-08T09:41:21.503Z,8.80
2018-06-08T09:43:51.707Z,8.13
2018-06-08T09:46:19.993Z,7.60
2018-06-08T09:48:52.472Z,7.03
2018-06-08T09:53:58.237Z,6.43
2018-06-08T09:56:34.860Z,6.33
2018-06-08T09:59:03.089Z,6.50
2018-06-08T10:04:11.205Z,5.97
2018-06-08T10:06:39.439Z,5.60
2018-06-08T10:09:10.165Z,5.93
2018-06-08T10:11:38.470Z,5.97
2018-06-08T10:14:13.216Z,5.30
2018-06-08T10:16:41.518Z,6.00
2018-06-08T10:19:12.515Z,5.93
2018-06-08T10:21:52.470Z,6.70
2018-06-08T10:24:20.894Z,5.97
2018-06-08T10:26:54.117Z,5.80
2018-06-08T10:29:27.378Z,6.07
2018-06-08T10:32:00.864Z,6.57
2018-06-08T10:34:34.225Z,6.23
2018-06-08T10:37:14.440Z,6.43
2018-06-08T10:39:42.663Z,6.63
2018-06-08T10:42:11.528Z,6.30
2018-06-08T10:44:39.942Z,5.97
2018-06-08T10:47:08.326Z,6.27
2018-06-08T10:49:36.579Z,5.63
2018-06-08T10:52:07.439Z,5.90
2018-06-08T10:54:36.194Z,6.13
2018-06-08T10:57:07.686Z,6.10
2018-06-08T10:59:39.093Z,6.00
2018-06-08T11:02:07.558Z,6.27
2018-06-08T11:04:40.064Z,7.10
2018-06-08T11:07:11.663Z,7.73
2018-06-08T11:09:44.046Z,6.63
2018-06-08T11:12:12.347Z,6.53
2018-06-08T11:14:41.156Z,6.60
2018-06-08T11:17:12.612Z,6.80
2018-06-08T11:19:47.274Z,6.80
2018-06-08T11:22:21.486Z,7.13
2018-06-08T11:24:57.568Z,6.47
2018-06-08T11:27:25.955Z,6.77
2018-06-08T11:29:54.315Z,6.80
2018-06-08T11:32:22.527Z,7.70
2018-06-08T11:34:55.583Z,7.03
2018-06-08T11:37:25.860Z,6.80
2018-06-08T11:39:54.224Z,6.40
2018-06-08T11:42:32.426Z,6.43
2018-06-08T11:45:07.174Z,7.17
2018-06-08T11:47:35.452Z,6.70
2018-06-08T11:50:10.152Z,6.93
2018-06-08T11:52:38.454Z,7.10
2018-06-08T11:55:06.713Z,7.00
2018-06-08T11:57:42.405Z,6.57
2018-06-08T12:00:10.633Z,7.20
2018-06-08T12:02:45.107Z,7.63
2018-06-08T12:05:16.193Z,6.83
2018-06-08T12:07:44.608Z,6.80
2018-06-08T12:10:13.132Z,6.53
2018-06-08T12:12:41.438Z,7.23
2018-06-08T12:15:15.189Z,7.57
2018-06-08T12:17:45.780Z,7.60
2018-06-08T12:20:20.113Z,7.80
2018-06-08T12:23:00.034Z,7.40
2018-06-08T12:25:28.654Z,7.57
2018-06-08T12:27:56.898Z,7.00
2018-06-08T12:30:32.239Z,7.70
2018-06-08T12:33:07.766Z,7.07
2018-06-08T12:35:42.067Z,7.40
2018-06-08T12:38:15.326Z,7.17
2018-06-08T12:40:46.536Z,7.20
2018-06-08T12:43:15.291Z,7.90
2018-06-08T12:45:51.327Z,6.70
2018-06-08T12:48:19.521Z,7.40
2018-06-08T12:50:54.139Z,7.63
2018-06-08T12:53:27.568Z,6.63
2018-06-08T12:56:00.885Z,6.90
2018-06-08T12:58:42.956Z,7.10
2018-06-08T13:01:16.145Z,6.70
2018-06-08T13:03:44.325Z,6.70
2018-06-08T13:06:15.396Z,7.00
2018-06-08T13:08:49.689Z,7.77
2018-06-08T13:11:17.998Z,8.60
2018-06-08T13:13:46.270Z,10.10
2018-06-08T13:16:18.822Z,9.60
2018-06-08T13:18:47.125Z,9.80
2018-06-08T13:21:18.217Z,10.20
2018-06-08T13:23:57.780Z,10.50
2018-06-08T13:26:28.583Z,10.17
2018-06-08T13:28:56.771Z,9.90
2018-06-08T13:31:30.092Z,10.90
2018-06-08T13:34:02.353Z,10.40
2018-06-08T13:36:30.658Z,9.87
2018-06-08T13:38:58.905Z,9.10
2018-06-08T13:41:34.585Z,8.87
2018-06-08T13:44:03.451Z,9.13
2018-06-08T13:46:46.376Z,9.20
2018-06-08T13:49:14.849Z,8.63
2018-06-08T13:51:43.039Z,9.03
2018-06-08T13:54:15.342Z,9.03
2018-06-08T13:56:49.011Z,9.50
2018-06-08T13:59:23.351Z,9.17
2018-06-08T14:01:54.328Z,9.33
2018-06-08T14:04:22.553Z,9.73
2018-06-08T14:06:55.057Z,8.97
2018-06-08T14:09:23.311Z,9.00
2018-06-08T14:11:58.841Z,10.43
2018-06-08T14:14:28.023Z,9.40
2018-06-08T14:17:07.090Z,9.03
2018-06-08T14:19:35.345Z,9.53
2018-06-08T14:22:06.467Z,9.40
2018-06-08T14:24:41.975Z,8.60
2018-06-08T14:27:14.255Z,10.40
2018-06-08T14:29:42.460Z,9.53
2018-06-08T14:32:10.743Z,10.53
2018-06-08T14:34:41.774Z,9.47
2018-06-08T14:37:12.947Z,9.70
2018-06-08T14:39:41.403Z,9.33
2018-06-08T14:42:09.679Z,9.17
2018-06-08T14:44:40.782Z,10.37
2018-06-08T14:47:13.998Z,9.87
2018-06-08T14:49:42.458Z,9.90
2018-06-08T14:52:10.839Z,11.17
2018-06-08T14:54:39.033Z,10.33
2018-06-08T14:57:13.726Z,9.90
2018-06-08T14:59:41.945Z,10.77
2018-06-08T15:02:15.147Z,10.80
2018-06-08T15:04:47.496Z,11.87
2018-06-08T15:07:18.359Z,12.23
2018-06-08T15:09:53.809Z,11.57
2018-06-08T15:12:28.240Z,12.60
2018-06-08T15:15:00.800Z,12.53
2018-06-08T15:17:29.078Z,12.23
2018-06-08T15:20:03.861Z,12.23
2018-06-08T15:22:32.082Z,12.77
2018-06-08T15:25:05.240Z,12.97
2018-06-08T15:27:37.640Z,13.50
2018-06-08T15:30:08.724Z,11.80
2018-06-08T15:32:36.912Z,12.87
2018-06-08T15:35:16.961Z,12.80
2018-06-08T15:37:47.738Z,13.17
2018-06-08T15:40:25.634Z,12.67
2018-06-08T15:42:53.920Z,12.93
2018-06-08T15:45:22.154Z,12.10
2018-06-08T15:47:53.161Z,12.60
2018-06-08T15:50:21.469Z,13.13
2018-06-08T15:52:49.647Z,13.37
2018-06-08T15:55:20.644Z,13.07
2018-06-08T15:57:48.881Z,13.07
2018-06-08T16:00:17.388Z,13.83
2018-06-08T16:02:45.638Z,13.23
2018-06-08T16:05:16.598Z,14.80
2018-06-08T16:07:44.933Z,13.37
2018-06-08T16:10:13.259Z,14.93
2018-06-08T16:12:45.978Z,13.43
2018-06-08T16:15:14.199Z,15.57
2018-06-08T16:17:48.914Z,15.37
2018-06-08T16:20:17.077Z,15.20
2018-06-08T16:22:51.818Z,16.47
2018-06-08T16:25:20.197Z,17.13
2018-06-08T16:27:48.504Z,16.23
2018-06-08T16:30:26.175Z,16.00
2018-06-08T16:32:54.479Z,16.63
2018-06-08T16:35:27.539Z,16.13
2018-06-08T16:37:58.767Z,16.17
2018-06-08T16:40:26.970Z,16.77
2018-06-08T16:42:57.060Z,17.20
2018-06-08T16:45:25.148Z,16.33
2018-06-08T16:47:53.451Z,16.80
2018-06-08T16:50:25.957Z,15.83
2018-06-08T16:52:54.294Z,16.23
2018-06-08T16:55:31.042Z,15.60
2018-06-08T16:57:59.345Z,18.90
2018-06-08T17:00:30.414Z,17.13
2018-06-08T17:03:01.956Z,18.10
2018-06-08T17:05:33.061Z,18.43
2018-06-08T17:08:01.258Z,18.30
2018-06-08T17:10:32.262Z,18.50
2018-06-08T17:13:03.038Z,20.17
2018-06-08T17:15:43.264Z,20.37
2018-06-08T17:18:14.108Z,20.70
2018-06-08T17:20:45.134Z,18.67
2018-06-08T17:23:21.241Z,20.03
2018-06-08T17:25:49.556Z,21.23
2018-06-08T17:28:17.837Z,19.83
2018-06-08T17:30:53.305Z,18.87
2018-06-08T17:33:27.877Z,19.80
2018-06-08T17:35:58.982Z,20.57
2018-06-08T17:38:33.153Z,20.27
2018-06-08T17:41:01.445Z,20.17
2018-06-08T17:43:29.732Z,19.27
2018-06-08T17:45:58.119Z,18.20
2018-06-08T17:48:32.693Z,18.77
2018-06-08T17:51:05.125Z,18.93
2018-06-08T17:53:40.601Z,19.40
2018-06-08T17:56:13.019Z,17.57
2018-06-08T17:58:48.034Z,17.60
2018-06-08T18:01:18.873Z,18.50
2018-06-08T18:03:50.147Z,19.67
2018-06-08T18:06:22.492Z,19.33
2018-06-08T18:09:03.803Z,18.20
2018-06-08T18:11:44.694Z,19.53
2018-06-08T18:14:12.952Z,17.67
2018-06-08T18:16:48.619Z,19.07
2018-06-08T18:19:22.127Z,18.50
2018-06-08T18:21:50.349Z,18.17
2018-06-08T18:24:21.511Z,18.33
2018-06-08T18:26:51.727Z,17.87
2018-06-08T18:29:19.879Z,18.80
2018-06-08T18:31:55.374Z,18.63
2018-06-08T18:34:28.445Z,18.17
2018-06-08T18:36:56.711Z,18.43
2018-06-08T18:39:24.884Z,18.33
2018-06-08T18:41:55.942Z,18.30
2018-06-08T18:44:29.318Z,17.73
2018-06-08T18:46:59.863Z,18.73
2018-06-08T18:49:30.214Z,17.23
2018-06-08T18:52:03.513Z,18.67
2018-06-08T18:54:31.737Z,17.13
2018-06-08T18:57:01.730Z,17.70
2018-06-08T18:59:33.008Z,17.07
2018-06-08T19:02:01.476Z,17.97
2018-06-08T19:04:29.646Z,18.33
2018-06-08T19:06:58.026Z,17.33
2018-06-08T19:09:26.067Z,17.10
2018-06-08T19:12:00.292Z,17.50
2018-06-08T19:14:28.898Z,15.07
2018-06-08T19:16:57.255Z,17.00
2018-06-08T19:19:25.450Z,15.23
2018-06-08T19:22:00.848Z,13.70
2018-06-08T19:24:31.945Z,12.57
2018-06-08T19:27:02.390Z,13.20
2018-06-08T19:29:31.149Z,11.03
2018-06-08T19:32:02.338Z,9.00
2018-06-08T19:34:30.654Z,8.07
2018-06-08T19:36:58.956Z,7.97
2018-06-08T19:39:33.583Z,7.47
2018-06-08T19:42:01.840Z,6.90
2018-06-08T19:44:36.360Z,6.50
2018-06-08T19:47:07.661Z,6.33
2018-06-08T19:49:40.180Z,6.87
2018-06-08T19:52:13.678Z,6.73
2018-06-08T19:54:48.395Z,6.07
2018-06-08T19:57:16.575Z,6.97
2018-06-08T19:59:51.238Z,7.27
2018-06-08T20:02:19.598Z,8.30
2018-06-08T20:04:59.430Z,7.40
2018-06-08T20:07:36.934Z,6.97
2018-06-08T20:10:15.537Z,7.40
2018-06-08T20:12:53.841Z,6.13
2018-06-08T20:15:27.104Z,5.50
2018-06-08T20:17:55.441Z,4.90
2018-06-08T20:20:23.706Z,5.43
2018-06-08T20:22:56.209Z,5.23
2018-06-08T20:25:27.233Z,5.03
2018-06-08T20:27:58.697Z,4.47
2018-06-08T20:30:36.415Z,4.73
2018-06-08T20:33:14.101Z,4.60
2018-06-08T20:35:42.341Z,3.90
2018-06-08T20:38:16.948Z,4.30
2018-06-08T20:40:45.128Z,4.40
2018-06-08T20:43:17.731Z,4.50
2018-06-08T20:45:51.623Z,4.40
2018-06-08T20:48:19.868Z,4.20
2018-06-08T20:50:48.150Z,4.33
2018-06-08T20:53:27.970Z,4.03
2018-06-08T20:55:56.225Z,4.27
2018-06-08T20:58:28.630Z,4.30
2018-06-08T21:01:00.001Z,4.07
2018-06-08T21:03:33.319Z,4.10
2018-06-08T21:06:05.924Z,4.20
2018-06-08T21:08:41.790Z,3.50
2018-06-08T21:11:10.220Z,3.90
2018-06-08T21:13:38.601Z,3.70
2018-06-08T21:16:07.008Z,3.97
2018-06-08T21:18:35.372Z,4.00
2018-06-08T21:21:10.113Z,4.00
2018-06-08T21:23:38.342Z,4.30
2018-06-08T21:26:16.237Z,3.70
2018-06-08T21:28:47.421Z,3.63
2018-06-08T21:31:15.797Z,3.90
2018-06-08T21:36:21.595Z,3.90
2018-06-08T21:38:55.779Z,3.93
2018-06-08T21:41:26.464Z,4.10
2018-06-08T21:44:08.650Z,3.50
2018-06-08T21:46:41.292Z,3.60
2018-06-08T21:49:23.342Z,4.10
2018-06-08T21:51:55.631Z,3.80
2018-06-08T21:54:24.052Z,4.03
2018-06-08T21:56:52.417Z,3.53
2018-06-08T21:59:20.727Z,3.97
2018-06-08T22:01:53.204Z,3.67
2018-06-08T22:04:25.698Z,3.57
2018-06-08T22:06:56.754Z,3.53
2018-06-08T22:09:29.207Z,3.60
2018-06-08T22:12:00.374Z,3.83
2018-06-08T22:14:28.590Z,3.47
2018-06-08T22:16:59.652Z,3.30
2018-06-08T22:19:28.110Z,3.57
2018-06-08T22:22:01.446Z,3.60
2018-06-08T22:24:32.661Z,3.70
2018-06-08T22:27:00.893Z,4.00
2018-06-08T22:29:35.383Z,3.93
2018-06-08T22:32:16.233Z,3.73
2018-06-08T22:34:46.753Z,3.93
2018-06-08T22:37:25.010Z,3.40
2018-06-08T22:39:53.658Z,3.57
2018-06-08T22:42:24.259Z,3.83
2018-06-08T22:44:52.248Z,3.47
2018-06-08T22:47:20.521Z,3.37
2018-06-08T22:49:58.223Z,3.27
2018-06-08T22:52:26.485Z,3.33
2018-06-08T22:54:59.567Z,3.33
2018-06-08T22:57:31.129Z,3.50
2018-06-08T23:00:02.261Z,3.40
2018-06-08T23:02:30.642Z,3.30
2018-06-08T23:04:58.921Z,3.10
2018-06-08T23:07:35.589Z,3.60
2018-06-08T23:10:03.943Z,3.33
2018-06-08T23:12:32.129Z,3.27
2018-06-08T23:15:03.487Z,3.70
2018-06-08T23:17:34.721Z,3.63
2018-06-08T23:20:03.149Z,3.40
2018-06-08T23:22:31.359Z,3.30
2018-06-08T23:25:04.605Z,3.47
2018-06-08T23:27:36.046Z,3.87
2018-06-08T23:30:12.438Z,3.30
2018-06-08T23:32:48.059Z,3.57
2018-06-08T23:35:25.685Z,3.67
2018-06-08T23:37:53.914Z,3.60
2018-06-08T23:40:25.059Z,3.40
2018-06-08T23:42:56.301Z,3.80
2018-06-08T23:45:24.838Z,3.73
2018-06-08T23:47:53.252Z,3.93
2018-06-08T23:50:21.428Z,3.77
2018-06-08T23:52:55.992Z,3.37
2018-06-08T23:55:24.215Z,4.00
2018-06-08T23:58:04.726Z,4.20
